sensor_id;sensor_type;location;lat;lon;timestamp;P1;durP1;ratioP1;P2;durP2;ratioP2
8652;SDS011;4364;52.426;9.424;2023-02-15T00:01:42;28.83;;;17.30;;
8652;SDS011;4364;52.426;9.424;2023-02-15T00:04:10;28.10;;;16.80;;
8652;SDS011;4364;52.426;9.424;2023-02-15T00:06:40;25.70;;;15.63;;
8652;SDS011;4364;52.426;9.424;2023-02-15T00:09:06;23.57;;;14.93;;
8652;SDS011;4364;52.426;9.424;2023-02-15T00:11:34;28.67;;;16.77;;
8652;SDS011;4364;52.426;9.424;2023-02-15T00:14:18;24.63;;;15.43;;
8652;SDS011;4364;52.426;9.424;2023-02-15T00:16:47;26.17;;;16.23;;
8652;SDS011;4364;52.426;9.424;2023-02-15T00:19:15;25.47;;;16.80;;
8652;SDS011;4364;52.426;9.424;2023-02-15T00:21:44;29.60;;;16.80;;
8652;SDS011;4364;52.426;9.424;2023-02-15T00:24:11;25.90;;;15.97;;
8652;SDS011;4364;52.426;9.424;2023-02-15T00:26:39;31.23;;;17.27;;
8652;SDS011;4364;52.426;9.424;2023-02-15T00:29:07;28.13;;;17.27;;
8652;SDS011;4364;52.426;9.424;2023-02-15T00:31:35;27.63;;;17.23;;
8652;SDS011;4364;52.426;9.424;2023-02-15T00:34:06;29.80;;;17.93;;
8652;SDS011;4364;52.426;9.424;2023-02-15T00:36:36;26.87;;;16.70;;
8652;SDS011;4364;52.426;9.424;2023-02-15T00:39:02;28.80;;;17.67;;
8652;SDS011;4364;52.426;9.424;2023-02-15T00:41:31;29.80;;;17.33;;
8652;SDS011;4364;52.426;9.424;2023-02-15T00:43:58;27.20;;;16.57;;
8652;SDS011;4364;52.426;9.424;2023-02-15T00:46:25;27.80;;;16.27;;
8652;SDS011;4364;52.426;9.424;2023-02-15T00:48:51;27.00;;;16.90;;
8652;SDS011;4364;52.426;9.424;2023-02-15T00:51:18;28.00;;;16.93;;
8652;SDS011;4364;52.426;9.424;2023-02-15T00:53:44;26.67;;;16.47;;
8652;SDS011;4364;52.426;9.424;2023-02-15T00:56:12;26.77;;;16.20;;
8652;SDS011;4364;52.426;9.424;2023-02-15T00:58:38;27.87;;;16.40;;
8652;SDS011;4364;52.426;9.424;2023-02-15T01:01:09;25.17;;;15.77;;
8652;SDS011;4364;52.426;9.424;2023-02-15T01:03:38;24.57;;;15.40;;
8652;SDS011;4364;52.426;9.424;2023-02-15T01:06:04;21.93;;;14.20;;
8652;SDS011;4364;52.426;9.424;2023-02-15T01:08:31;23.70;;;14.70;;
8652;SDS011;4364;52.426;9.424;2023-02-15T01:11:02;24.50;;;15.37;;
8652;SDS011;4364;52.426;9.424;2023-02-15T01:13:33;23.60;;;14.47;;
8652;SDS011;4364;52.426;9.424;2023-02-15T01:16:01;25.33;;;15.60;;
8652;SDS011;4364;52.426;9.424;2023-02-15T01:18:29;24.67;;;15.27;;
8652;SDS011;4364;52.426;9.424;2023-02-15T01:20:56;25.20;;;15.17;;
8652;SDS011;4364;52.426;9.424;2023-02-15T01:23:23;23.70;;;14.77;;
8652;SDS011;4364;52.426;9.424;2023-02-15T01:25:50;27.67;;;15.20;;
8652;SDS011;4364;52.426;9.424;2023-02-15T01:28:16;24.20;;;15.30;;
8652;SDS011;4364;52.426;9.424;2023-02-15T01:30:43;24.63;;;15.43;;
8652;SDS011;4364;52.426;9.424;2023-02-15T01:33:10;26.87;;;15.33;;
8652;SDS011;4364;52.426;9.424;2023-02-15T01:35:46;25.77;;;14.97;;
8652;SDS011;4364;52.426;9.424;2023-02-15T01:38:13;24.87;;;14.80;;
8652;SDS011;4364;52.426;9.424;2023-02-15T01:40:40;24.97;;;15.00;;
8652;SDS011;4364;52.426;9.424;2023-02-15T01:43:11;27.40;;;15.00;;
8652;SDS011;4364;52.426;9.424;2023-02-15T01:45:38;25.80;;;15.50;;
8652;SDS011;4364;52.426;9.424;2023-02-15T01:48:22;27.03;;;14.93;;
8652;SDS011;4364;52.426;9.424;2023-02-15T01:50:55;27.23;;;16.40;;
8652;SDS011;4364;52.426;9.424;2023-02-15T01:53:27;27.63;;;16.17;;
8652;SDS011;4364;52.426;9.424;2023-02-15T01:56:02;30.03;;;17.37;;
8652;SDS011;4364;52.426;9.424;2023-02-15T01:58:35;26.57;;;15.80;;
8652;SDS011;4364;52.426;9.424;2023-02-15T02:01:03;23.67;;;14.80;;
8652;SDS011;4364;52.426;9.424;2023-02-15T02:06:29;26.27;;;15.83;;
8652;SDS011;4364;52.426;9.424;2023-02-15T02:08:59;23.90;;;15.37;;
8652;SDS011;4364;52.426;9.424;2023-02-15T02:11:27;23.77;;;14.87;;
8652;SDS011;4364;52.426;9.424;2023-02-15T02:13:53;24.97;;;14.97;;
8652;SDS011;4364;52.426;9.424;2023-02-15T02:24:48;22.93;;;14.60;;
8652;SDS011;4364;52.426;9.424;2023-02-15T02:30:49;21.10;;;13.23;;
8652;SDS011;4364;52.426;9.424;2023-02-15T02:33:36;19.07;;;13.20;;
8652;SDS011;4364;52.426;9.424;2023-02-15T02:36:24;20.00;;;13.27;;
8652;SDS011;4364;52.426;9.424;2023-02-15T02:42:15;19.93;;;12.47;;
8652;SDS011;4364;52.426;9.424;2023-02-15T02:44:46;20.83;;;13.13;;
8652;SDS011;4364;52.426;9.424;2023-02-15T02:47:17;17.57;;;12.30;;
8652;SDS011;4364;52.426;9.424;2023-02-15T02:49:58;21.13;;;12.93;;
8652;SDS011;4364;52.426;9.424;2023-02-15T02:52:39;20.50;;;12.77;;
8652;SDS011;4364;52.426;9.424;2023-02-15T02:55:10;19.37;;;13.43;;
8652;SDS011;4364;52.426;9.424;2023-02-15T02:57:51;19.20;;;12.37;;
8652;SDS011;4364;52.426;9.424;2023-02-15T03:00:30;23.70;;;13.43;;
8652;SDS011;4364;52.426;9.424;2023-02-15T03:03:09;20.17;;;12.60;;
8652;SDS011;4364;52.426;9.424;2023-02-15T03:05:43;19.47;;;13.00;;
8652;SDS011;4364;52.426;9.424;2023-02-15T03:08:13;19.23;;;13.10;;
8652;SDS011;4364;52.426;9.424;2023-02-15T03:10:48;18.17;;;11.63;;
8652;SDS011;4364;52.426;9.424;2023-02-15T03:13:19;20.93;;;13.17;;
8652;SDS011;4364;52.426;9.424;2023-02-15T03:15:46;21.03;;;12.53;;
8652;SDS011;4364;52.426;9.424;2023-02-15T03:18:50;22.57;;;13.90;;
8652;SDS011;4364;52.426;9.424;2023-02-15T03:21:26;23.93;;;13.53;;
8652;SDS011;4364;52.426;9.424;2023-02-15T03:23:59;21.07;;;13.40;;
8652;SDS011;4364;52.426;9.424;2023-02-15T03:26:31;23.13;;;13.63;;
8652;SDS011;4364;52.426;9.424;2023-02-15T03:29:00;21.03;;;13.13;;
8652;SDS011;4364;52.426;9.424;2023-02-15T03:31:31;21.97;;;13.03;;
8652;SDS011;4364;52.426;9.424;2023-02-15T03:34:02;20.93;;;13.27;;
8652;SDS011;4364;52.426;9.424;2023-02-15T03:36:36;25.17;;;13.57;;
8652;SDS011;4364;52.426;9.424;2023-02-15T03:39:16;21.30;;;13.07;;
8652;SDS011;4364;52.426;9.424;2023-02-15T03:41:48;21.40;;;13.10;;
8652;SDS011;4364;52.426;9.424;2023-02-15T03:44:23;20.20;;;12.07;;
8652;SDS011;4364;52.426;9.424;2023-02-15T03:46:58;21.17;;;13.17;;
8652;SDS011;4364;52.426;9.424;2023-02-15T03:52:19;22.67;;;13.37;;
8652;SDS011;4364;52.426;9.424;2023-02-15T03:54:49;24.10;;;13.40;;
8652;SDS011;4364;52.426;9.424;2023-02-15T03:57:20;22.47;;;13.87;;
8652;SDS011;4364;52.426;9.424;2023-02-15T04:00:14;22.97;;;13.80;;
8652;SDS011;4364;52.426;9.424;2023-02-15T04:05:55;21.07;;;13.40;;
8652;SDS011;4364;52.426;9.424;2023-02-15T04:08:21;20.63;;;12.43;;
8652;SDS011;4364;52.426;9.424;2023-02-15T04:11:08;20.30;;;12.43;;
8652;SDS011;4364;52.426;9.424;2023-02-15T04:13:34;19.87;;;12.33;;
8652;SDS011;4364;52.426;9.424;2023-02-15T04:16:01;18.57;;;12.50;;
8652;SDS011;4364;52.426;9.424;2023-02-15T04:18:35;19.77;;;12.60;;
8652;SDS011;4364;52.426;9.424;2023-02-15T04:21:22;18.70;;;12.40;;
8652;SDS011;4364;52.426;9.424;2023-02-15T04:24:08;18.60;;;12.27;;
8652;SDS011;4364;52.426;9.424;2023-02-15T04:26:53;21.03;;;13.27;;
8652;SDS011;4364;52.426;9.424;2023-02-15T04:29:20;25.00;;;15.00;;
8652;SDS011;4364;52.426;9.424;2023-02-15T04:31:48;21.30;;;14.10;;
8652;SDS011;4364;52.426;9.424;2023-02-15T04:34:16;21.47;;;14.10;;
8652;SDS011;4364;52.426;9.424;2023-02-15T04:36:43;22.33;;;14.23;;
8652;SDS011;4364;52.426;9.424;2023-02-15T04:39:12;20.80;;;13.90;;
8652;SDS011;4364;52.426;9.424;2023-02-15T04:41:39;20.33;;;13.27;;
8652;SDS011;4364;52.426;9.424;2023-02-15T04:44:06;20.17;;;12.83;;
8652;SDS011;4364;52.426;9.424;2023-02-15T04:46:33;20.90;;;12.83;;
8652;SDS011;4364;52.426;9.424;2023-02-15T04:48:59;21.53;;;13.67;;
8652;SDS011;4364;52.426;9.424;2023-02-15T04:51:27;20.70;;;13.50;;
8652;SDS011;4364;52.426;9.424;2023-02-15T04:53:53;20.23;;;13.43;;
8652;SDS011;4364;52.426;9.424;2023-02-15T04:56:20;19.57;;;13.37;;
8652;SDS011;4364;52.426;9.424;2023-02-15T04:58:47;20.73;;;12.93;;
8652;SDS011;4364;52.426;9.424;2023-02-15T05:01:14;20.10;;;13.77;;
8652;SDS011;4364;52.426;9.424;2023-02-15T05:03:41;19.77;;;12.63;;
8652;SDS011;4364;52.426;9.424;2023-02-15T05:06:08;20.53;;;13.63;;
8652;SDS011;4364;52.426;9.424;2023-02-15T05:08:34;21.77;;;12.27;;
8652;SDS011;4364;52.426;9.424;2023-02-15T05:11:01;21.37;;;13.20;;
8652;SDS011;4364;52.426;9.424;2023-02-15T05:13:27;20.30;;;13.60;;
8652;SDS011;4364;52.426;9.424;2023-02-15T05:15:53;19.73;;;13.63;;
8652;SDS011;4364;52.426;9.424;2023-02-15T05:18:20;20.93;;;13.60;;
8652;SDS011;4364;52.426;9.424;2023-02-15T05:20:48;22.47;;;13.87;;
8652;SDS011;4364;52.426;9.424;2023-02-15T05:23:15;18.60;;;12.27;;
8652;SDS011;4364;52.426;9.424;2023-02-15T05:25:45;20.30;;;13.43;;
8652;SDS011;4364;52.426;9.424;2023-02-15T05:28:31;21.77;;;13.83;;
8652;SDS011;4364;52.426;9.424;2023-02-15T05:31:04;26.87;;;15.37;;
8652;SDS011;4364;52.426;9.424;2023-02-15T05:33:34;30.07;;;17.80;;
8652;SDS011;4364;52.426;9.424;2023-02-15T05:36:01;30.47;;;18.03;;
8652;SDS011;4364;52.426;9.424;2023-02-15T05:38:28;31.00;;;17.67;;
8652;SDS011;4364;52.426;9.424;2023-02-15T05:40:55;28.40;;;16.90;;
8652;SDS011;4364;52.426;9.424;2023-02-15T05:43:22;30.83;;;18.10;;
8652;SDS011;4364;52.426;9.424;2023-02-15T05:45:50;32.27;;;17.93;;
8652;SDS011;4364;52.426;9.424;2023-02-15T05:48:18;32.37;;;19.13;;
8652;SDS011;4364;52.426;9.424;2023-02-15T05:50:45;31.33;;;17.73;;
8652;SDS011;4364;52.426;9.424;2023-02-15T05:53:12;33.17;;;18.37;;
8652;SDS011;4364;52.426;9.424;2023-02-15T05:55:39;32.13;;;18.13;;
8652;SDS011;4364;52.426;9.424;2023-02-15T05:58:06;31.60;;;18.80;;
8652;SDS011;4364;52.426;9.424;2023-02-15T06:00:34;34.83;;;18.90;;
8652;SDS011;4364;52.426;9.424;2023-02-15T06:03:03;33.73;;;18.37;;
8652;SDS011;4364;52.426;9.424;2023-02-15T06:05:29;35.83;;;18.40;;
8652;SDS011;4364;52.426;9.424;2023-02-15T06:07:56;29.70;;;17.60;;
8652;SDS011;4364;52.426;9.424;2023-02-15T06:10:22;33.67;;;19.20;;
8652;SDS011;4364;52.426;9.424;2023-02-15T06:12:49;30.97;;;17.53;;
8652;SDS011;4364;52.426;9.424;2023-02-15T06:15:15;34.20;;;20.60;;
8652;SDS011;4364;52.426;9.424;2023-02-15T06:17:42;34.80;;;19.53;;
8652;SDS011;4364;52.426;9.424;2023-02-15T06:20:09;32.40;;;18.50;;
8652;SDS011;4364;52.426;9.424;2023-02-15T06:22:36;34.37;;;19.23;;
8652;SDS011;4364;52.426;9.424;2023-02-15T06:25:02;32.70;;;18.50;;
8652;SDS011;4364;52.426;9.424;2023-02-15T06:27:29;38.57;;;23.20;;
8652;SDS011;4364;52.426;9.424;2023-02-15T06:29:56;35.37;;;21.60;;
8652;SDS011;4364;52.426;9.424;2023-02-15T06:32:22;38.30;;;21.97;;
8652;SDS011;4364;52.426;9.424;2023-02-15T06:34:49;35.27;;;19.90;;
8652;SDS011;4364;52.426;9.424;2023-02-15T06:37:15;40.20;;;20.60;;
8652;SDS011;4364;52.426;9.424;2023-02-15T06:39:42;38.57;;;20.63;;
8652;SDS011;4364;52.426;9.424;2023-02-15T06:42:09;35.00;;;19.33;;
8652;SDS011;4364;52.426;9.424;2023-02-15T06:44:35;33.43;;;18.90;;
8652;SDS011;4364;52.426;9.424;2023-02-15T06:47:02;38.07;;;20.60;;
8652;SDS011;4364;52.426;9.424;2023-02-15T06:49:28;35.40;;;21.40;;
8652;SDS011;4364;52.426;9.424;2023-02-15T06:51:55;42.33;;;24.60;;
8652;SDS011;4364;52.426;9.424;2023-02-15T06:54:21;38.80;;;21.57;;
8652;SDS011;4364;52.426;9.424;2023-02-15T06:56:48;37.40;;;20.47;;
8652;SDS011;4364;52.426;9.424;2023-02-15T06:59:15;37.90;;;21.27;;
8652;SDS011;4364;52.426;9.424;2023-02-15T07:01:41;34.93;;;20.20;;
8652;SDS011;4364;52.426;9.424;2023-02-15T07:04:08;37.33;;;20.90;;
8652;SDS011;4364;52.426;9.424;2023-02-15T07:06:35;34.37;;;19.10;;
8652;SDS011;4364;52.426;9.424;2023-02-15T07:09:02;34.37;;;18.50;;
8652;SDS011;4364;52.426;9.424;2023-02-15T07:11:28;36.90;;;19.30;;
8652;SDS011;4364;52.426;9.424;2023-02-15T07:14:14;33.90;;;19.00;;
8652;SDS011;4364;52.426;9.424;2023-02-15T07:16:40;32.73;;;18.93;;
8652;SDS011;4364;52.426;9.424;2023-02-15T07:19:07;32.23;;;19.57;;
8652;SDS011;4364;52.426;9.424;2023-02-15T07:21:34;36.30;;;20.07;;
8652;SDS011;4364;52.426;9.424;2023-02-15T07:24:01;36.10;;;20.20;;
8652;SDS011;4364;52.426;9.424;2023-02-15T07:26:28;34.07;;;19.00;;
8652;SDS011;4364;52.426;9.424;2023-02-15T07:28:57;36.37;;;19.73;;
8652;SDS011;4364;52.426;9.424;2023-02-15T07:31:24;33.73;;;19.67;;
8652;SDS011;4364;52.426;9.424;2023-02-15T07:33:50;32.20;;;19.23;;
8652;SDS011;4364;52.426;9.424;2023-02-15T07:36:17;35.70;;;20.07;;
8652;SDS011;4364;52.426;9.424;2023-02-15T07:38:43;35.50;;;19.20;;
8652;SDS011;4364;52.426;9.424;2023-02-15T07:41:12;33.03;;;18.37;;
8652;SDS011;4364;52.426;9.424;2023-02-15T07:43:40;33.10;;;18.47;;
8652;SDS011;4364;52.426;9.424;2023-02-15T07:46:09;32.70;;;17.70;;
8652;SDS011;4364;52.426;9.424;2023-02-15T07:48:38;33.07;;;17.90;;
8652;SDS011;4364;52.426;9.424;2023-02-15T07:51:07;32.27;;;18.30;;
8652;SDS011;4364;52.426;9.424;2023-02-15T07:53:35;36.63;;;18.93;;
8652;SDS011;4364;52.426;9.424;2023-02-15T07:56:04;35.93;;;19.13;;
8652;SDS011;4364;52.426;9.424;2023-02-15T07:58:35;36.67;;;19.13;;
8652;SDS011;4364;52.426;9.424;2023-02-15T08:01:18;36.67;;;19.47;;
8652;SDS011;4364;52.426;9.424;2023-02-15T08:03:46;37.20;;;19.10;;
8652;SDS011;4364;52.426;9.424;2023-02-15T08:06:13;34.23;;;19.50;;
8652;SDS011;4364;52.426;9.424;2023-02-15T08:08:40;36.10;;;19.97;;
8652;SDS011;4364;52.426;9.424;2023-02-15T08:14:00;35.17;;;19.97;;
8652;SDS011;4364;52.426;9.424;2023-02-15T08:16:34;37.30;;;20.50;;
8652;SDS011;4364;52.426;9.424;2023-02-15T08:19:03;34.20;;;20.30;;
8652;SDS011;4364;52.426;9.424;2023-02-15T08:21:38;32.90;;;18.93;;
8652;SDS011;4364;52.426;9.424;2023-02-15T08:24:07;35.37;;;19.47;;
8652;SDS011;4364;52.426;9.424;2023-02-15T08:26:35;36.57;;;20.43;;
8652;SDS011;4364;52.426;9.424;2023-02-15T08:29:03;34.00;;;19.60;;
8652;SDS011;4364;52.426;9.424;2023-02-15T08:31:29;34.10;;;18.83;;
8652;SDS011;4364;52.426;9.424;2023-02-15T08:33:56;32.20;;;18.87;;
8652;SDS011;4364;52.426;9.424;2023-02-15T08:36:24;33.27;;;18.70;;
8652;SDS011;4364;52.426;9.424;2023-02-15T08:38:53;31.53;;;18.33;;
8652;SDS011;4364;52.426;9.424;2023-02-15T08:41:24;33.50;;;18.73;;
8652;SDS011;4364;52.426;9.424;2023-02-15T08:43:53;32.43;;;18.33;;
8652;SDS011;4364;52.426;9.424;2023-02-15T08:46:22;30.90;;;17.17;;
8652;SDS011;4364;52.426;9.424;2023-02-15T08:48:49;33.97;;;18.67;;
8652;SDS011;4364;52.426;9.424;2023-02-15T08:51:18;30.63;;;17.73;;
8652;SDS011;4364;52.426;9.424;2023-02-15T08:53:47;32.17;;;18.03;;
8652;SDS011;4364;52.426;9.424;2023-02-15T08:56:15;31.70;;;18.17;;
8652;SDS011;4364;52.426;9.424;2023-02-15T08:58:43;31.80;;;17.87;;
8652;SDS011;4364;52.426;9.424;2023-02-15T09:01:10;35.33;;;19.13;;
8652;SDS011;4364;52.426;9.424;2023-02-15T09:03:38;32.37;;;18.93;;
8652;SDS011;4364;52.426;9.424;2023-02-15T09:06:05;33.80;;;19.17;;
8652;SDS011;4364;52.426;9.424;2023-02-15T09:08:33;31.60;;;18.33;;
8652;SDS011;4364;52.426;9.424;2023-02-15T09:11:33;30.90;;;17.57;;
8652;SDS011;4364;52.426;9.424;2023-02-15T09:13:57;30.40;;;18.13;;
8652;SDS011;4364;52.426;9.424;2023-02-15T09:16:27;32.90;;;18.07;;
8652;SDS011;4364;52.426;9.424;2023-02-15T09:18:56;28.97;;;16.93;;
8652;SDS011;4364;52.426;9.424;2023-02-15T09:21:31;28.20;;;17.33;;
8652;SDS011;4364;52.426;9.424;2023-02-15T09:23:59;29.23;;;17.43;;
8652;SDS011;4364;52.426;9.424;2023-02-15T09:26:31;31.70;;;16.87;;
8652;SDS011;4364;52.426;9.424;2023-02-15T09:29:02;31.27;;;17.50;;
8652;SDS011;4364;52.426;9.424;2023-02-15T09:31:30;31.37;;;17.37;;
8652;SDS011;4364;52.426;9.424;2023-02-15T09:34:00;29.47;;;16.87;;
8652;SDS011;4364;52.426;9.424;2023-02-15T09:36:31;30.60;;;17.87;;
8652;SDS011;4364;52.426;9.424;2023-02-15T09:39:10;27.67;;;16.70;;
8652;SDS011;4364;52.426;9.424;2023-02-15T09:49:34;25.07;;;16.07;;
8652;SDS011;4364;52.426;9.424;2023-02-15T09:52:14;25.77;;;16.03;;
8652;SDS011;4364;52.426;9.424;2023-02-15T10:01:05;25.10;;;15.30;;
8652;SDS011;4364;52.426;9.424;2023-02-15T10:03:52;26.03;;;15.63;;
8652;SDS011;4364;52.426;9.424;2023-02-15T10:18:21;21.10;;;13.20;;
8652;SDS011;4364;52.426;9.424;2023-02-15T10:21:09;22.10;;;13.53;;
8652;SDS011;4364;52.426;9.424;2023-02-15T10:23:59;20.73;;;13.20;;
8652;SDS011;4364;52.426;9.424;2023-02-15T10:26:31;20.10;;;12.73;;
8652;SDS011;4364;52.426;9.424;2023-02-15T10:29:10;21.33;;;13.57;;
8652;SDS011;4364;52.426;9.424;2023-02-15T10:38:07;18.43;;;12.73;;
8652;SDS011;4364;52.426;9.424;2023-02-15T10:41:00;20.53;;;12.73;;
8652;SDS011;4364;52.426;9.424;2023-02-15T10:49:35;18.43;;;12.13;;
8652;SDS011;4364;52.426;9.424;2023-02-15T10:52:29;19.93;;;13.03;;
8652;SDS011;4364;52.426;9.424;2023-02-15T10:55:18;19.17;;;13.03;;
8652;SDS011;4364;52.426;9.424;2023-02-15T10:57:56;22.20;;;12.60;;
8652;SDS011;4364;52.426;9.424;2023-02-15T11:01:11;20.73;;;13.27;;
8652;SDS011;4364;52.426;9.424;2023-02-15T11:04:00;20.23;;;12.77;;
8652;SDS011;4364;52.426;9.424;2023-02-15T11:07:01;19.50;;;12.70;;
8652;SDS011;4364;52.426;9.424;2023-02-15T11:09:38;20.30;;;12.53;;
8652;SDS011;4364;52.426;9.424;2023-02-15T11:12:16;17.43;;;12.60;;
8652;SDS011;4364;52.426;9.424;2023-02-15T11:14:56;22.37;;;13.53;;
8652;SDS011;4364;52.426;9.424;2023-02-15T11:17:37;18.57;;;12.73;;
8652;SDS011;4364;52.426;9.424;2023-02-15T11:20:14;20.63;;;13.27;;
8652;SDS011;4364;52.426;9.424;2023-02-15T11:22:48;19.27;;;13.00;;
8652;SDS011;4364;52.426;9.424;2023-02-15T11:25:18;19.43;;;13.10;;
8652;SDS011;4364;52.426;9.424;2023-02-15T11:27:49;19.87;;;12.97;;
8652;SDS011;4364;52.426;9.424;2023-02-15T11:30:19;18.27;;;12.60;;
8652;SDS011;4364;52.426;9.424;2023-02-15T11:32:50;21.23;;;12.93;;
8652;SDS011;4364;52.426;9.424;2023-02-15T11:35:22;19.50;;;12.87;;
8652;SDS011;4364;52.426;9.424;2023-02-15T11:38:10;20.90;;;13.13;;
8652;SDS011;4364;52.426;9.424;2023-02-15T11:40:50;17.67;;;12.20;;
8652;SDS011;4364;52.426;9.424;2023-02-15T11:45:51;23.00;;;14.30;;
8652;SDS011;4364;52.426;9.424;2023-02-15T11:48:17;18.57;;;12.60;;
8652;SDS011;4364;52.426;9.424;2023-02-15T11:50:44;18.90;;;12.50;;
8652;SDS011;4364;52.426;9.424;2023-02-15T11:53:13;20.07;;;13.50;;
8652;SDS011;4364;52.426;9.424;2023-02-15T11:55:44;19.87;;;12.57;;
8652;SDS011;4364;52.426;9.424;2023-02-15T12:01:16;19.23;;;12.50;;
8652;SDS011;4364;52.426;9.424;2023-02-15T12:07:05;20.23;;;13.10;;
8652;SDS011;4364;52.426;9.424;2023-02-15T12:09:56;18.73;;;12.50;;
8652;SDS011;4364;52.426;9.424;2023-02-15T12:12:31;21.90;;;13.13;;
8652;SDS011;4364;52.426;9.424;2023-02-15T12:15:00;18.73;;;12.53;;
8652;SDS011;4364;52.426;9.424;2023-02-15T12:17:33;18.33;;;12.70;;
8652;SDS011;4364;52.426;9.424;2023-02-15T12:22:51;18.80;;;12.83;;
8652;SDS011;4364;52.426;9.424;2023-02-15T12:25:21;19.60;;;12.50;;
8652;SDS011;4364;52.426;9.424;2023-02-15T12:27:52;18.73;;;12.43;;
8652;SDS011;4364;52.426;9.424;2023-02-15T12:30:24;20.27;;;13.47;;
8652;SDS011;4364;52.426;9.424;2023-02-15T12:33:05;22.70;;;12.97;;
8652;SDS011;4364;52.426;9.424;2023-02-15T12:35:43;19.70;;;13.07;;
8652;SDS011;4364;52.426;9.424;2023-02-15T12:40:37;22.43;;;13.47;;
8652;SDS011;4364;52.426;9.424;2023-02-15T12:43:04;18.30;;;12.90;;
8652;SDS011;4364;52.426;9.424;2023-02-15T12:45:35;20.73;;;13.10;;
8652;SDS011;4364;52.426;9.424;2023-02-15T12:50:43;20.30;;;12.77;;
8652;SDS011;4364;52.426;9.424;2023-02-15T12:56:00;20.20;;;13.23;;
8652;SDS011;4364;52.426;9.424;2023-02-15T12:58:32;20.33;;;13.93;;
8652;SDS011;4364;52.426;9.424;2023-02-15T13:01:09;19.40;;;12.90;;
8652;SDS011;4364;52.426;9.424;2023-02-15T13:04:06;18.83;;;12.70;;
8652;SDS011;4364;52.426;9.424;2023-02-15T13:06:47;21.53;;;13.63;;
8652;SDS011;4364;52.426;9.424;2023-02-15T13:09:17;18.40;;;12.90;;
8652;SDS011;4364;52.426;9.424;2023-02-15T13:11:51;20.97;;;13.03;;
8652;SDS011;4364;52.426;9.424;2023-02-15T13:16:47;19.03;;;13.20;;
8652;SDS011;4364;52.426;9.424;2023-02-15T13:19:16;18.50;;;12.67;;
8652;SDS011;4364;52.426;9.424;2023-02-15T13:21:45;18.20;;;13.20;;
8652;SDS011;4364;52.426;9.424;2023-02-15T13:26:50;20.40;;;13.80;;
8652;SDS011;4364;52.426;9.424;2023-02-15T13:29:38;20.80;;;13.80;;
8652;SDS011;4364;52.426;9.424;2023-02-15T13:32:12;18.57;;;12.87;;
8652;SDS011;4364;52.426;9.424;2023-02-15T13:34:43;19.97;;;14.13;;
8652;SDS011;4364;52.426;9.424;2023-02-15T13:37:17;20.40;;;13.00;;
8652;SDS011;4364;52.426;9.424;2023-02-15T13:39:48;18.13;;;12.60;;
8652;SDS011;4364;52.426;9.424;2023-02-15T13:42:30;17.40;;;12.70;;
8652;SDS011;4364;52.426;9.424;2023-02-15T13:53:17;20.20;;;12.83;;
8652;SDS011;4364;52.426;9.424;2023-02-15T13:56:20;19.80;;;12.50;;
8652;SDS011;4364;52.426;9.424;2023-02-15T14:02:39;20.53;;;13.77;;
8652;SDS011;4364;52.426;9.424;2023-02-15T14:11:15;17.47;;;12.63;;
8652;SDS011;4364;52.426;9.424;2023-02-15T14:16:36;21.00;;;12.90;;
8652;SDS011;4364;52.426;9.424;2023-02-15T14:19:43;18.10;;;12.17;;
8652;SDS011;4364;52.426;9.424;2023-02-15T14:28:14;20.10;;;12.67;;
8652;SDS011;4364;52.426;9.424;2023-02-15T14:30:43;18.93;;;12.97;;
8652;SDS011;4364;52.426;9.424;2023-02-15T14:35:40;21.03;;;13.10;;
8652;SDS011;4364;52.426;9.424;2023-02-15T14:38:18;21.07;;;13.37;;
8652;SDS011;4364;52.426;9.424;2023-02-15T14:41:27;21.30;;;14.27;;
8652;SDS011;4364;52.426;9.424;2023-02-15T14:43:58;22.00;;;15.07;;
8652;SDS011;4364;52.426;9.424;2023-02-15T14:49:25;22.60;;;14.17;;
8652;SDS011;4364;52.426;9.424;2023-02-15T14:51:54;21.17;;;14.50;;
8652;SDS011;4364;52.426;9.424;2023-02-15T14:59:42;18.67;;;13.30;;
8652;SDS011;4364;52.426;9.424;2023-02-15T15:02:16;20.13;;;12.47;;
8652;SDS011;4364;52.426;9.424;2023-02-15T15:12:49;21.00;;;13.57;;
8652;SDS011;4364;52.426;9.424;2023-02-15T15:20:44;21.97;;;13.70;;
8652;SDS011;4364;52.426;9.424;2023-02-15T15:25:51;20.40;;;13.07;;
8652;SDS011;4364;52.426;9.424;2023-02-15T15:31:16;19.83;;;13.43;;
8652;SDS011;4364;52.426;9.424;2023-02-15T15:42:25;20.27;;;12.57;;
8652;SDS011;4364;52.426;9.424;2023-02-15T15:50:31;23.10;;;13.93;;
8652;SDS011;4364;52.426;9.424;2023-02-15T15:52:58;19.70;;;12.83;;
8652;SDS011;4364;52.426;9.424;2023-02-15T15:55:29;19.87;;;12.33;;
8652;SDS011;4364;52.426;9.424;2023-02-15T15:58:04;21.03;;;13.73;;
8652;SDS011;4364;52.426;9.424;2023-02-15T16:00:38;18.53;;;12.07;;
8652;SDS011;4364;52.426;9.424;2023-02-15T16:03:13;21.00;;;12.90;;
8652;SDS011;4364;52.426;9.424;2023-02-15T16:05:42;21.23;;;14.43;;
8652;SDS011;4364;52.426;9.424;2023-02-15T16:08:08;21.63;;;13.77;;
8652;SDS011;4364;52.426;9.424;2023-02-15T16:10:34;23.43;;;14.60;;
8652;SDS011;4364;52.426;9.424;2023-02-15T16:13:04;22.37;;;14.00;;
8652;SDS011;4364;52.426;9.424;2023-02-15T16:18:15;19.60;;;13.17;;
8652;SDS011;4364;52.426;9.424;2023-02-15T16:20:48;22.07;;;14.43;;
8652;SDS011;4364;52.426;9.424;2023-02-15T16:23:25;25.10;;;15.73;;
8652;SDS011;4364;52.426;9.424;2023-02-15T16:28:58;23.37;;;15.20;;
8652;SDS011;4364;52.426;9.424;2023-02-15T16:31:25;23.57;;;14.83;;
8652;SDS011;4364;52.426;9.424;2023-02-15T16:33:53;25.57;;;15.93;;
8652;SDS011;4364;52.426;9.424;2023-02-15T16:36:22;27.13;;;17.17;;
8652;SDS011;4364;52.426;9.424;2023-02-15T16:41:29;23.77;;;15.30;;
8652;SDS011;4364;52.426;9.424;2023-02-15T16:43:56;24.23;;;15.57;;
8652;SDS011;4364;52.426;9.424;2023-02-15T16:46:28;28.10;;;16.93;;
8652;SDS011;4364;52.426;9.424;2023-02-15T16:49:00;45.23;;;25.63;;
8652;SDS011;4364;52.426;9.424;2023-02-15T16:51:32;38.20;;;22.20;;
8652;SDS011;4364;52.426;9.424;2023-02-15T16:54:03;42.33;;;24.43;;
8652;SDS011;4364;52.426;9.424;2023-02-15T16:56:34;35.40;;;20.37;;
8652;SDS011;4364;52.426;9.424;2023-02-15T16:59:02;27.00;;;17.07;;
8652;SDS011;4364;52.426;9.424;2023-02-15T17:01:30;25.73;;;16.70;;
8652;SDS011;4364;52.426;9.424;2023-02-15T17:04:21;26.23;;;16.47;;
8652;SDS011;4364;52.426;9.424;2023-02-15T17:07:02;30.27;;;18.40;;
8652;SDS011;4364;52.426;9.424;2023-02-15T17:09:29;29.93;;;19.13;;
8652;SDS011;4364;52.426;9.424;2023-02-15T17:11:56;27.10;;;18.07;;
8652;SDS011;4364;52.426;9.424;2023-02-15T17:14:29;27.23;;;16.97;;
8652;SDS011;4364;52.426;9.424;2023-02-15T17:17:01;27.60;;;17.00;;
8652;SDS011;4364;52.426;9.424;2023-02-15T17:19:33;29.50;;;17.00;;
8652;SDS011;4364;52.426;9.424;2023-02-15T17:22:16;29.43;;;16.93;;
8652;SDS011;4364;52.426;9.424;2023-02-15T17:24:46;37.13;;;19.20;;
8652;SDS011;4364;52.426;9.424;2023-02-15T17:27:17;32.53;;;17.73;;
8652;SDS011;4364;52.426;9.424;2023-02-15T17:29:48;31.77;;;17.90;;
8652;SDS011;4364;52.426;9.424;2023-02-15T17:32:20;32.07;;;18.10;;
8652;SDS011;4364;52.426;9.424;2023-02-15T17:37:49;28.37;;;18.17;;
8652;SDS011;4364;52.426;9.424;2023-02-15T17:40:29;32.90;;;19.80;;
8652;SDS011;4364;52.426;9.424;2023-02-15T17:43:00;30.00;;;19.07;;
8652;SDS011;4364;52.426;9.424;2023-02-15T17:45:30;32.37;;;19.37;;
8652;SDS011;4364;52.426;9.424;2023-02-15T17:48:09;39.73;;;23.63;;
8652;SDS011;4364;52.426;9.424;2023-02-15T17:50:46;37.47;;;22.00;;
8652;SDS011;4364;52.426;9.424;2023-02-15T17:53:13;41.27;;;23.67;;
8652;SDS011;4364;52.426;9.424;2023-02-15T17:55:43;34.33;;;21.10;;
8652;SDS011;4364;52.426;9.424;2023-02-15T17:58:11;32.00;;;19.70;;
8652;SDS011;4364;52.426;9.424;2023-02-15T18:00:39;30.57;;;18.63;;
8652;SDS011;4364;52.426;9.424;2023-02-15T18:03:33;33.67;;;20.40;;
8652;SDS011;4364;52.426;9.424;2023-02-15T18:06:20;31.03;;;19.43;;
8652;SDS011;4364;52.426;9.424;2023-02-15T18:09:07;32.63;;;19.27;;